This is the latest recevied weather packets stored in our database for station/object K7YVO. If no packets are shown the sender has not sent any weather packets the latest 10 day(s).
| Time | Temp. | Humidity | Pressure | Rain* | Wind** | Luminosity | Snow |
|---|---|---|---|---|---|---|---|
| 1777558652 | 12.22° C | 60% | 1020.8 hPa | 0 mm | - | 40 W/m² | - |
| 1777557437 | 11.67° C | 61% | 1020.8 hPa | 0 mm | - | 30 W/m² | - |
| 1777556526 | 11.11° C | 62% | 1020.8 hPa | 0 mm | - | 22 W/m² | - |
| 1777553798 | 9.44° C | 69% | 1021 hPa | 0 mm | - | 2 W/m² | - |
| 1777553495 | 9.44° C | 69% | 1021 hPa | 0 mm | - | 1 W/m² | - |
| 1777551979 | 7.22° C | 78% | 1021.1 hPa | 0 mm | - | 0 W/m² | - |
| 1777551677 | 7.22° C | 80% | 1021.1 hPa | 0 mm | - | 0 W/m² | - |
| 1777550768 | 7.22° C | 80% | 1021.3 hPa | 0 mm | - | 0 W/m² | - |
| 1777550161 | 7.22° C | 81% | 1021.3 hPa | 0 mm | - | 0 W/m² | - |
| 1777549553 | 7.22° C | 81% | 1021.3 hPa | 0 mm | - | 0 W/m² | - |
| 1777548643 | 7.78° C | 79% | 1021.4 hPa | 0 mm | - | 0 W/m² | - |
| 1777548339 | 7.78° C | 78% | 1021.4 hPa | 0 mm | - | 0 W/m² | - |
| 1777547732 | 8.33° C | 76% | 1021.5 hPa | 0 mm | - | 0 W/m² | - |
| 1777547428 | 7.78° C | 75% | 1021.4 hPa | 0 mm | - | 0 W/m² | - |
| 1777545307 | 10° C | 69% | 1021.4 hPa | 0 mm | - | 0 W/m² | - |
| 1777545004 | 10° C | 65% | 1021.2 hPa | 0 mm | - | 0 W/m² | - |
| 1777544701 | 10° C | 65% | 1021.5 hPa | 0 mm | - | 0 W/m² | - |
| 1777544396 | 10° C | 65% | 1021.2 hPa | 0 mm | - | 0 W/m² | - |
| 1777544093 | 10° C | 66% | 1021.3 hPa | 0 mm | - | 0 W/m² | - |
| 1777543791 | 10° C | 67% | 1021.3 hPa | 0 mm | - | 0 W/m² | - |
| 1777543183 | 10.56° C | 66% | 1021.3 hPa | 0 mm | - | 0 W/m² | - |
| 1777542879 | 10.56° C | 65% | 1021.2 hPa | 0 mm | - | 0 W/m² | - |
| 1777542576 | 11.11° C | 63% | 1021.1 hPa | 0 mm | - | 0 W/m² | - |
| 1777542272 | 11.11° C | 62% | 1021.3 hPa | 0 mm | - | 0 W/m² | - |
| 1777541969 | 11.11° C | 61% | 1021.3 hPa | 0 mm | - | 0 W/m² | - |
* Rain latest hour (hover to see other rain measurements)
** Current wind speed in m/s (hover to see current wind gust speed)